Terminal Aerodrome Forecast
Issued by NWS

Home | Current Version | Previous Version | Text Only | Print | Product List | Glossary Off
Versions: 1 2 3 4 5 6 7 8 9 10 11 12 13 14 15 16 17 18 19 20

000
FTUS43 KFGF 232321
TAFBJI
TAF
KBJI 232321Z 2400/2424 11010KT P6SM -RA OVC050
     FM240300 12010KT P6SM VCSH OVC025
     FM240500 12010KT P6SM OVC010
     FM241500 12010KT P6SM OVC020
     FM242100 13013KT P6SM BKN040
     FM242300 13012KT P6SM OVC020=

USA.gov is the U.S. government's official web portal to all federal, state and local government web resources and services.